createdAt,value
2023-02-04T00:00:31.018Z,6.41
2023-02-04T00:03:05.843Z,6.41
2023-02-04T00:05:38.715Z,6.41
2023-02-04T00:08:11.670Z,6.35
2023-02-04T00:10:44.530Z,6.28
2023-02-04T00:13:17.949Z,6.26
2023-02-04T00:15:51.011Z,6.25
2023-02-04T00:18:25.445Z,6.08
2023-02-04T00:20:58.189Z,6.08
2023-02-04T00:23:30.906Z,6.07
2023-02-04T00:26:03.867Z,5.96
2023-02-04T00:28:36.610Z,6.00
2023-02-04T00:31:09.427Z,6.07
2023-02-04T00:33:43.917Z,5.97
2023-02-04T00:36:16.683Z,5.90
2023-02-04T00:38:50.466Z,5.84
2023-02-04T00:41:23.227Z,5.90
2023-02-04T00:43:56.020Z,5.81
2023-02-04T00:46:30.358Z,5.82
2023-02-04T00:49:06.605Z,5.84
2023-02-04T00:51:41.124Z,5.78
2023-02-04T00:54:15.780Z,5.78
2023-02-04T00:56:48.528Z,5.67
2023-02-04T00:59:21.550Z,5.72
2023-02-04T01:01:54.367Z,5.93
2023-02-04T01:04:29.986Z,5.78
2023-02-04T01:07:02.992Z,5.65
2023-02-04T01:09:39.030Z,5.75
2023-02-04T01:12:11.848Z,5.72
2023-02-04T01:14:44.807Z,5.58
2023-02-04T01:17:18.408Z,5.38
2023-02-04T01:19:55.267Z,5.32
2023-02-04T01:22:28.175Z,5.40
2023-02-04T01:25:01.756Z,5.33
2023-02-04T01:27:47.405Z,5.47
2023-02-04T01:30:20.272Z,5.42
2023-02-04T01:32:53.133Z,5.45
2023-02-04T01:35:27.343Z,5.46
2023-02-04T01:38:00.112Z,5.43
2023-02-04T01:40:33.287Z,5.52
2023-02-04T01:43:07.010Z,5.46
2023-02-04T01:45:39.908Z,5.53
2023-02-04T01:48:20.064Z,5.54
2023-02-04T01:50:58.070Z,5.57
2023-02-04T01:53:32.699Z,5.47
2023-02-04T01:56:16.481Z,5.47
2023-02-04T01:58:50.164Z,5.48
2023-02-04T02:01:38.198Z,5.48
2023-02-04T02:04:13.212Z,5.65
2023-02-04T02:06:51.890Z,5.66
2023-02-04T02:09:25.099Z,5.69
2023-02-04T02:11:58.369Z,5.77
2023-02-04T02:14:32.252Z,5.88
2023-02-04T02:17:05.106Z,5.94
2023-02-04T02:19:40.988Z,5.98
2023-02-04T02:22:25.290Z,6.01
2023-02-04T02:24:59.405Z,5.99
2023-02-04T02:27:32.334Z,5.98
2023-02-04T02:30:06.236Z,6.00
2023-02-04T02:32:39.922Z,5.99
2023-02-04T02:35:13.063Z,5.98
2023-02-04T02:37:45.891Z,6.03
2023-02-04T02:40:21.026Z,5.97
2023-02-04T02:42:55.055Z,6.00
2023-02-04T02:45:31.510Z,5.93
2023-02-04T02:48:04.503Z,6.05
2023-02-04T02:50:37.896Z,6.04
2023-02-04T02:53:12.910Z,5.94
2023-02-04T02:55:48.532Z,5.87
2023-02-04T02:58:29.040Z,5.96
2023-02-04T03:01:05.599Z,5.89
2023-02-04T03:03:44.235Z,5.83
2023-02-04T03:06:20.420Z,5.89
2023-02-04T03:08:56.833Z,5.74
2023-02-04T03:11:32.653Z,5.68
2023-02-04T03:14:06.112Z,5.68
2023-02-04T03:16:40.483Z,5.75
2023-02-04T03:19:14.098Z,5.69
2023-02-04T03:21:47.183Z,5.73
2023-02-04T03:24:20.103Z,5.74
2023-02-04T03:26:54.367Z,5.74
2023-02-04T03:29:28.444Z,5.60
2023-02-04T03:32:03.170Z,5.63
2023-02-04T03:34:36.088Z,5.47
2023-02-04T03:37:10.413Z,5.52
2023-02-04T03:39:43.460Z,5.52
2023-02-04T03:42:17.774Z,5.54
2023-02-04T03:44:50.847Z,5.48
2023-02-04T03:47:23.677Z,5.50
2023-02-04T03:49:56.460Z,5.44
2023-02-04T03:52:29.250Z,5.38
2023-02-04T03:55:02.042Z,5.43
2023-02-04T03:57:36.151Z,5.43
2023-02-04T04:00:10.564Z,5.46
2023-02-04T04:02:46.456Z,5.50
2023-02-04T04:05:19.389Z,5.42
2023-02-04T04:07:52.685Z,5.43
2023-02-04T04:10:25.688Z,5.45
2023-02-04T04:12:59.860Z,5.47
2023-02-04T04:15:34.123Z,5.46
2023-02-04T04:18:07.092Z,5.44
2023-02-04T04:20:39.892Z,5.37
2023-02-04T04:23:12.669Z,5.36
2023-02-04T04:25:45.652Z,5.40
2023-02-04T04:28:19.896Z,5.35
2023-02-04T04:30:52.756Z,5.33
2023-02-04T04:33:25.562Z,5.30
2023-02-04T04:35:58.541Z,5.30
2023-02-04T04:38:31.309Z,5.36
2023-02-04T04:41:04.187Z,5.27
2023-02-04T04:43:38.407Z,5.17
2023-02-04T04:46:11.185Z,5.13
2023-02-04T04:48:43.970Z,5.16
2023-02-04T04:51:16.855Z,4.88
2023-02-04T04:53:49.629Z,4.89
2023-02-04T04:56:22.422Z,4.81
2023-02-04T04:58:56.587Z,4.74
2023-02-04T05:01:29.320Z,4.78
2023-02-04T05:04:03.886Z,4.80
2023-02-04T05:06:36.669Z,4.78
2023-02-04T05:09:09.703Z,4.85
2023-02-04T05:11:42.443Z,5.01
2023-02-04T05:14:16.585Z,5.01
2023-02-04T05:16:49.424Z,5.07
2023-02-04T05:19:22.226Z,5.03
2023-02-04T05:21:55.120Z,5.09
2023-02-04T05:24:27.951Z,5.10
2023-02-04T05:27:00.723Z,5.13
2023-02-04T05:29:34.883Z,5.09
2023-02-04T05:32:07.652Z,5.07
2023-02-04T05:34:40.589Z,5.16
2023-02-04T05:37:15.360Z,5.19
2023-02-04T05:39:48.566Z,5.14
2023-02-04T05:42:21.346Z,5.11
2023-02-04T05:44:55.580Z,5.25
2023-02-04T05:47:28.450Z,5.24
2023-02-04T05:50:01.359Z,5.23
2023-02-04T05:52:34.205Z,5.35
2023-02-04T05:55:08.120Z,5.37
2023-02-04T05:57:41.153Z,5.08
2023-02-04T06:00:16.035Z,5.09
2023-02-04T06:02:48.775Z,5.15
2023-02-04T06:05:22.997Z,5.24
2023-02-04T06:07:55.834Z,5.19
2023-02-04T06:10:28.645Z,5.14
2023-02-04T06:13:01.479Z,5.11
2023-02-04T06:15:35.644Z,5.16
2023-02-04T06:18:08.695Z,5.08
2023-02-04T06:20:41.691Z,5.12
2023-02-04T06:23:14.585Z,5.12
2023-02-04T06:25:48.844Z,5.00
2023-02-04T06:28:21.694Z,5.16
2023-02-04T06:30:55.986Z,5.23
2023-02-04T06:33:28.930Z,5.30
2023-02-04T06:36:01.870Z,5.21
2023-02-04T06:38:34.778Z,5.03
2023-02-04T06:41:07.786Z,5.03
2023-02-04T06:43:40.658Z,5.00
2023-02-04T06:46:15.561Z,5.01
2023-02-04T06:48:48.496Z,4.88
2023-02-04T06:51:21.398Z,5.03
2023-02-04T06:53:54.237Z,5.04
2023-02-04T06:56:29.395Z,4.99
2023-02-04T06:59:03.460Z,4.96
2023-02-04T07:01:39.803Z,5.01
2023-02-04T07:04:12.576Z,4.99
2023-02-04T07:06:45.303Z,5.06
2023-02-04T07:09:18.101Z,5.16
2023-02-04T07:11:50.916Z,4.94
2023-02-04T07:14:23.714Z,4.88
2023-02-04T07:16:58.725Z,4.99
2023-02-04T07:19:31.537Z,4.97
2023-02-04T07:22:04.834Z,5.00
2023-02-04T07:24:37.840Z,5.01
2023-02-04T07:27:10.662Z,4.96
2023-02-04T07:29:43.550Z,5.02
2023-02-04T07:32:17.684Z,5.43
2023-02-04T07:34:50.479Z,5.42
2023-02-04T07:37:23.700Z,5.13
2023-02-04T07:39:56.552Z,5.34
2023-02-04T07:42:29.408Z,5.33
2023-02-04T07:45:11.416Z,5.56
2023-02-04T07:47:45.766Z,5.42
2023-02-04T07:50:18.764Z,5.60
2023-02-04T07:52:51.512Z,5.70
2023-02-04T07:55:24.348Z,5.47
2023-02-04T07:57:57.272Z,5.26
2023-02-04T08:00:30.384Z,5.32
2023-02-04T08:03:05.108Z,5.25
2023-02-04T08:05:40.734Z,5.19
2023-02-04T08:08:13.494Z,5.04
2023-02-04T08:10:46.304Z,5.17
2023-02-04T08:13:19.058Z,4.85
2023-02-04T08:15:51.867Z,5.01
2023-02-04T08:18:26.109Z,4.85
2023-02-04T08:20:59.474Z,5.00
2023-02-04T08:23:33.044Z,4.95
2023-02-04T08:26:06.143Z,4.90
2023-02-04T08:28:39.386Z,4.80
2023-02-04T08:31:12.710Z,4.92
2023-02-04T08:33:47.102Z,5.17
2023-02-04T08:36:19.877Z,5.38
2023-02-04T08:38:52.675Z,4.93
2023-02-04T08:41:25.557Z,5.18
2023-02-04T08:43:58.577Z,5.37
2023-02-04T08:46:31.516Z,5.34
2023-02-04T08:49:05.816Z,4.96
2023-02-04T08:51:38.603Z,5.25
2023-02-04T08:54:11.345Z,5.36
2023-02-04T08:56:45.007Z,5.43
2023-02-04T08:59:17.790Z,5.46
2023-02-04T09:01:52.496Z,5.38
2023-02-04T09:04:28.388Z,5.18
2023-02-04T09:07:01.702Z,5.23
2023-02-04T09:09:34.444Z,5.63
2023-02-04T09:12:07.223Z,5.40
2023-02-04T09:14:39.971Z,5.59
2023-02-04T09:17:12.707Z,5.69
2023-02-04T09:19:46.839Z,5.69
2023-02-04T09:22:19.677Z,5.95
2023-02-04T09:24:52.556Z,5.87
2023-02-04T09:27:25.300Z,6.05
2023-02-04T09:29:58.330Z,6.27
2023-02-04T09:32:31.236Z,6.32
2023-02-04T09:35:06.035Z,6.41
2023-02-04T09:37:39.019Z,6.84
2023-02-04T09:40:17.119Z,6.50
2023-02-04T09:42:51.609Z,6.71
2023-02-04T09:45:28.062Z,6.71
2023-02-04T09:48:04.226Z,6.12
2023-02-04T09:50:38.595Z,6.38
2023-02-04T09:53:15.593Z,5.90
2023-02-04T09:55:49.788Z,6.13
2023-02-04T09:58:26.321Z,6.23
2023-02-04T10:01:02.505Z,5.79
2023-02-04T10:03:35.714Z,6.46
2023-02-04T10:06:10.533Z,6.27
2023-02-04T10:08:45.017Z,6.06
2023-02-04T10:11:20.662Z,5.67
2023-02-04T10:13:56.107Z,5.61
2023-02-04T10:16:32.852Z,5.93
2023-02-04T10:19:08.651Z,5.77
2023-02-04T10:21:44.752Z,5.50
2023-02-04T10:24:19.861Z,5.54
2023-02-04T10:26:52.685Z,6.30
2023-02-04T10:29:25.898Z,6.30
2023-02-04T10:31:58.782Z,6.30
2023-02-04T10:34:37.857Z,6.32
2023-02-04T10:37:21.256Z,6.52
2023-02-04T10:39:54.299Z,6.40
2023-02-04T10:42:28.616Z,6.66
2023-02-04T10:45:01.452Z,6.36
2023-02-04T10:47:35.967Z,6.61
2023-02-04T10:50:18.434Z,6.18
2023-02-04T10:52:55.323Z,6.09
2023-02-04T10:55:28.087Z,6.01
2023-02-04T10:58:03.479Z,6.73
2023-02-04T11:00:36.245Z,6.44
2023-02-04T11:03:12.986Z,6.52
2023-02-04T11:05:45.738Z,6.65
2023-02-04T11:08:24.100Z,6.87
2023-02-04T11:11:00.118Z,7.24
2023-02-04T11:13:42.025Z,6.72
2023-02-04T11:16:26.388Z,6.72
2023-02-04T11:19:00.904Z,7.44
2023-02-04T11:21:44.613Z,7.04
2023-02-04T11:24:34.556Z,6.92
2023-02-04T11:27:19.149Z,6.76
2023-02-04T11:29:52.718Z,6.73
2023-02-04T11:32:32.202Z,6.94
2023-02-04T11:35:22.173Z,6.50
2023-02-04T11:37:56.029Z,6.62
2023-02-04T11:40:32.639Z,6.78
2023-02-04T11:43:12.450Z,7.13
2023-02-04T11:45:45.636Z,6.79
2023-02-04T11:48:20.893Z,6.65
2023-02-04T11:50:57.907Z,6.85
2023-02-04T11:53:32.703Z,6.90
2023-02-04T11:56:06.974Z,6.79
2023-02-04T11:58:41.983Z,6.69
2023-02-04T12:01:18.660Z,7.49
2023-02-04T12:03:57.550Z,7.03
2023-02-04T12:06:32.987Z,7.49
2023-02-04T12:09:07.152Z,7.24
2023-02-04T12:11:41.270Z,7.10
2023-02-04T12:14:18.805Z,7.40
2023-02-04T12:16:52.682Z,7.15
2023-02-04T12:19:27.577Z,7.13
2023-02-04T12:22:00.842Z,6.47
2023-02-04T12:24:33.542Z,6.89
2023-02-04T12:27:07.631Z,7.29
2023-02-04T12:29:40.372Z,7.58
2023-02-04T12:32:13.155Z,8.23
2023-02-04T12:34:45.922Z,8.61
2023-02-04T12:37:18.664Z,8.25
2023-02-04T12:39:51.763Z,7.81
2023-02-04T12:42:25.852Z,7.71
2023-02-04T12:44:58.619Z,7.80
2023-02-04T12:47:31.348Z,7.58
2023-02-04T12:50:04.269Z,7.79
2023-02-04T12:52:39.064Z,7.20
2023-02-04T12:55:11.903Z,7.53
2023-02-04T12:57:46.459Z,7.57
2023-02-04T13:00:21.380Z,7.81
2023-02-04T13:02:55.895Z,7.93
2023-02-04T13:05:29.088Z,7.91
2023-02-04T13:08:02.036Z,8.13
2023-02-04T13:10:34.957Z,7.63
2023-02-04T13:13:09.284Z,7.99
2023-02-04T13:15:42.195Z,8.06
2023-02-04T13:18:17.383Z,7.48
2023-02-04T13:20:50.737Z,7.92
2023-02-04T13:23:23.586Z,7.67
2023-02-04T13:25:56.383Z,7.67
2023-02-04T13:28:30.484Z,8.27
2023-02-04T13:31:04.530Z,8.03
2023-02-04T13:33:37.370Z,8.21
2023-02-04T13:36:10.210Z,8.25
2023-02-04T13:38:42.958Z,8.73
2023-02-04T13:41:15.692Z,8.19
2023-02-04T13:43:49.879Z,8.71
2023-02-04T13:46:22.928Z,9.08
2023-02-04T13:48:56.155Z,8.72
2023-02-04T13:51:29.842Z,8.85
2023-02-04T13:54:02.709Z,8.52
2023-02-04T13:56:36.565Z,8.31
2023-02-04T13:59:10.667Z,8.18
2023-02-04T14:01:43.554Z,7.97
2023-02-04T14:04:16.380Z,7.41
2023-02-04T14:06:49.172Z,7.63
2023-02-04T14:09:22.614Z,7.40
2023-02-04T14:11:55.404Z,7.47
2023-02-04T14:14:29.666Z,7.62
2023-02-04T14:17:02.403Z,7.81
2023-02-04T14:19:35.330Z,7.96
2023-02-04T14:22:12.929Z,8.22
2023-02-04T14:24:47.745Z,8.10
2023-02-04T14:27:22.258Z,8.60
2023-02-04T14:29:56.399Z,7.94
2023-02-04T14:32:29.186Z,8.07
2023-02-04T14:35:02.119Z,8.10
2023-02-04T14:37:34.870Z,7.69
2023-02-04T14:40:08.936Z,7.92
2023-02-04T14:42:42.061Z,7.42
2023-02-04T14:45:16.228Z,7.59
2023-02-04T14:47:48.950Z,7.33
2023-02-04T14:53:16.447Z,7.82
2023-02-04T14:55:49.299Z,7.89
2023-02-04T14:58:22.273Z,7.48
2023-02-04T15:00:56.673Z,7.59
2023-02-04T15:03:29.622Z,7.42
2023-02-04T15:06:02.902Z,7.37
2023-02-04T15:08:35.910Z,7.63
2023-02-04T15:11:08.646Z,7.22
2023-02-04T15:13:41.461Z,7.03
2023-02-04T15:16:15.747Z,7.33
2023-02-04T15:18:48.752Z,7.32
2023-02-04T15:21:21.518Z,6.56
2023-02-04T15:23:54.274Z,6.42
2023-02-04T15:26:27.037Z,6.79
2023-02-04T15:28:59.794Z,6.35
2023-02-04T15:31:34.050Z,6.56
2023-02-04T15:34:06.877Z,6.85
2023-02-04T15:36:39.560Z,6.99
2023-02-04T15:39:12.491Z,6.72
2023-02-04T15:41:45.318Z,6.43
2023-02-04T15:44:18.109Z,6.82
2023-02-04T15:46:52.452Z,6.60
2023-02-04T15:49:25.214Z,5.98
2023-02-04T15:51:58.604Z,6.11
2023-02-04T15:54:31.660Z,6.60
2023-02-04T15:57:04.727Z,6.50
2023-02-04T15:59:37.585Z,6.86
2023-02-04T16:02:12.594Z,6.63
2023-02-04T16:04:47.881Z,6.49
2023-02-04T16:07:20.672Z,6.55
2023-02-04T16:09:53.422Z,6.71
2023-02-04T16:12:26.191Z,6.78
2023-02-04T16:14:59.333Z,6.54
2023-02-04T16:17:34.720Z,5.84
2023-02-04T16:20:08.885Z,6.07
2023-02-04T16:22:41.652Z,6.41
2023-02-04T16:25:14.422Z,6.46
2023-02-04T16:27:47.177Z,6.12
2023-02-04T16:30:19.901Z,6.43
2023-02-04T16:32:54.134Z,6.19
2023-02-04T16:35:27.104Z,6.28
2023-02-04T16:38:00.023Z,6.58
2023-02-04T16:40:33.176Z,6.50
2023-02-04T16:43:06.124Z,6.03
2023-02-04T16:45:38.878Z,5.65
2023-02-04T16:48:13.292Z,5.68
2023-02-04T16:50:46.044Z,6.22
2023-02-04T16:53:18.785Z,6.06
2023-02-04T16:55:51.534Z,6.17
2023-02-04T16:58:24.354Z,6.38
2023-02-04T17:00:58.523Z,6.08
2023-02-04T17:03:32.852Z,6.02
2023-02-04T17:06:05.914Z,5.92
2023-02-04T17:08:38.698Z,6.07
2023-02-04T17:11:29.809Z,6.19
2023-02-04T17:14:04.480Z,6.34
2023-02-04T17:16:37.702Z,6.36
2023-02-04T17:19:12.613Z,6.43
2023-02-04T17:21:45.751Z,5.99
2023-02-04T17:24:18.639Z,5.88
2023-02-04T17:26:51.418Z,6.17
2023-02-04T17:29:24.920Z,5.33
2023-02-04T17:31:57.758Z,4.91
2023-02-04T17:34:31.875Z,5.47
2023-02-04T17:37:04.719Z,5.13
2023-02-04T17:39:37.496Z,4.87
2023-02-04T17:42:10.393Z,4.86
2023-02-04T17:44:43.660Z,4.83
2023-02-04T17:47:16.627Z,4.24
2023-02-04T17:49:50.973Z,4.69
2023-02-04T17:52:23.804Z,4.67
2023-02-04T17:54:56.559Z,4.25
2023-02-04T17:57:29.519Z,4.36
2023-02-04T18:00:03.024Z,4.37
2023-02-04T18:02:45.344Z,4.06
2023-02-04T18:05:22.578Z,3.89
2023-02-04T18:08:00.984Z,4.13
2023-02-04T18:10:36.388Z,4.10
2023-02-04T18:13:14.837Z,3.97
2023-02-04T18:15:50.429Z,3.91
2023-02-04T18:18:25.393Z,3.96
2023-02-04T18:21:02.120Z,3.81
2023-02-04T18:23:35.138Z,4.09
2023-02-04T18:26:13.209Z,4.03
2023-02-04T18:28:48.407Z,4.14
2023-02-04T18:31:35.328Z,4.18
2023-02-04T18:34:20.680Z,4.02
2023-02-04T18:36:55.199Z,3.82
2023-02-04T18:39:29.727Z,3.22
2023-02-04T18:42:02.497Z,3.62
2023-02-04T18:44:38.043Z,3.66
2023-02-04T18:47:29.544Z,3.57
2023-02-04T18:50:16.591Z,3.18
2023-02-04T18:52:50.883Z,3.17
2023-02-04T18:55:30.618Z,3.10
2023-02-04T18:58:26.211Z,3.16
2023-02-04T19:01:01.867Z,3.02
2023-02-04T19:03:42.140Z,3.03
2023-02-04T19:06:25.060Z,2.99
2023-02-04T19:09:09.293Z,2.85
2023-02-04T19:11:43.704Z,2.83
2023-02-04T19:14:22.244Z,2.74
2023-02-04T19:17:03.227Z,2.73
2023-02-04T19:19:38.676Z,2.88
2023-02-04T19:22:19.747Z,2.81
2023-02-04T19:24:58.536Z,2.57
2023-02-04T19:27:34.289Z,2.54
2023-02-04T19:30:41.684Z,2.31
2023-02-04T19:33:17.925Z,2.68
2023-02-04T19:35:50.714Z,2.28
2023-02-04T19:38:40.405Z,2.29
2023-02-04T19:41:28.000Z,2.35
2023-02-04T19:44:34.654Z,2.46
2023-02-04T19:47:30.563Z,1.71
2023-02-04T19:50:21.605Z,1.58
2023-02-04T19:52:58.046Z,1.71
2023-02-04T19:55:34.429Z,1.68
2023-02-04T19:58:20.682Z,1.74
2023-02-04T20:00:57.838Z,1.25
2023-02-04T20:03:40.946Z,1.49
2023-02-04T20:06:32.700Z,1.52
2023-02-04T20:09:11.828Z,1.74
2023-02-04T20:11:59.662Z,1.28
2023-02-04T20:14:47.451Z,1.31
2023-02-04T20:17:37.301Z,1.47
2023-02-04T20:20:27.691Z,1.59
2023-02-04T20:23:00.938Z,1.46
2023-02-04T20:25:54.642Z,1.10
2023-02-04T20:28:40.163Z,0.67
2023-02-04T20:31:29.573Z,0.72
2023-02-04T20:34:02.437Z,0.72
2023-02-04T20:36:38.479Z,0.49
2023-02-04T20:39:25.125Z,0.77
2023-02-04T20:42:21.851Z,0.16
2023-02-04T20:44:55.584Z,0.46
2023-02-04T20:47:35.930Z,0.75
2023-02-04T20:50:41.207Z,0.91
2023-02-04T20:53:25.510Z,0.97
2023-02-04T20:56:03.834Z,0.98
2023-02-04T20:58:38.894Z,0.76
2023-02-04T21:01:23.136Z,0.19
2023-02-04T21:03:57.928Z,0.74
2023-02-04T21:06:36.279Z,-0.04
2023-02-04T21:09:21.978Z,-0.25
2023-02-04T21:11:56.152Z,-0.06
2023-02-04T21:14:30.192Z,0.30
2023-02-04T21:17:03.398Z,0.06
2023-02-04T21:19:37.607Z,-0.25
2023-02-04T21:22:10.314Z,0.17
2023-02-04T21:24:44.648Z,0.44
2023-02-04T21:27:21.954Z,0.18
2023-02-04T21:29:54.730Z,0.54
2023-02-04T21:32:27.476Z,0.36
2023-02-04T21:35:01.598Z,0.31
2023-02-04T21:37:34.402Z,0.56
2023-02-04T21:40:08.259Z,0.61
2023-02-04T21:42:40.977Z,0.71
2023-02-04T21:45:13.715Z,0.22
2023-02-04T21:47:47.228Z,0.29
2023-02-04T21:50:23.034Z,0.39
2023-02-04T21:52:56.000Z,0.58
2023-02-04T21:55:29.869Z,0.75
2023-02-04T21:58:02.683Z,0.48
2023-02-04T22:00:35.984Z,-0.19
2023-02-04T22:03:12.976Z,0.27
2023-02-04T22:05:47.148Z,0.66
2023-02-04T22:08:19.975Z,0.81
2023-02-04T22:10:52.784Z,0.73
2023-02-04T22:13:25.543Z,0.77
2023-02-04T22:15:58.341Z,0.90
2023-02-04T22:18:31.282Z,0.78
2023-02-04T22:21:05.619Z,0.54
2023-02-04T22:23:39.659Z,0.60
2023-02-04T22:26:12.571Z,-0.09
2023-02-04T22:28:45.432Z,-0.71
2023-02-04T22:31:18.301Z,-0.92
2023-02-04T22:33:51.135Z,-0.82
2023-02-04T22:36:25.301Z,-0.06
2023-02-04T22:38:58.076Z,0.05
2023-02-04T22:41:30.862Z,-0.15
2023-02-04T22:44:04.232Z,0.09
2023-02-04T22:46:37.019Z,-0.36
2023-02-04T22:49:09.932Z,-0.19
2023-02-04T22:51:44.172Z,0.01
2023-02-04T22:54:17.054Z,0.25
2023-02-04T22:56:49.820Z,0.15
2023-02-04T22:59:22.622Z,0.16
2023-02-04T23:01:55.733Z,-1.11
2023-02-04T23:04:28.615Z,-1.35
2023-02-04T23:07:04.729Z,-1.21
2023-02-04T23:09:37.678Z,-1.30
2023-02-04T23:12:16.369Z,-1.52
2023-02-04T23:14:50.027Z,-1.57
2023-02-04T23:17:23.571Z,-1.27
2023-02-04T23:19:56.543Z,-1.01
2023-02-04T23:22:30.748Z,-0.95
2023-02-04T23:25:06.196Z,-1.52
2023-02-04T23:27:40.124Z,-1.54
2023-02-04T23:30:14.568Z,-1.47
2023-02-04T23:32:47.581Z,-1.30
2023-02-04T23:35:20.908Z,-1.71
2023-02-04T23:37:55.059Z,-1.55
2023-02-04T23:40:27.825Z,-0.91
2023-02-04T23:43:00.584Z,-0.80
2023-02-04T23:45:33.663Z,-0.53
2023-02-04T23:48:07.328Z,-0.71
2023-02-04T23:50:40.065Z,-0.40
2023-02-04T23:53:14.332Z,-0.52
2023-02-04T23:55:47.406Z,-0.83
2023-02-04T23:58:20.231Z,-0.61
